Tipperary, Ireland
Current Conditions -  °F | °C
As of 4:00 PM on Sunday 23 Nov 2014 (Local Time) from EINN Reporting Station
Scattered Clouds Scattered Clouds  
Wind Chill: 43°   Ceiling: Unl
Heat Index: 46°   Visibility: 6mi
Dew Point: 36°   Wind: 7mph
Humidity: 66%   Direction: 230°SW
Pressure: 30.15"   Gusts: NA
Location:  52.49°N, 8.17°W
Report Text: EINN 231600Z 23006KT 9999 FEW018CB SCT030 08/02 Q1021 NOSIG
Loading
Personal Weather Stations






























Interactive Weather Map New forecast layout! Learn more

10-Day Weather Forecast

Advertisements
Track Severe Weather on mobile